createdAt,value
2024-04-30T05:26:05.803Z,62.22
2024-04-30T05:26:37.175Z,62.16
2024-04-30T05:27:08.552Z,62.57
2024-04-30T05:27:39.912Z,62.24
2024-04-30T05:28:11.280Z,60.92
2024-04-30T05:28:42.423Z,61.69
2024-04-30T05:29:13.759Z,61.39
2024-04-30T05:29:44.880Z,62.74
2024-04-30T05:30:16.239Z,63.17
2024-04-30T05:30:47.612Z,63.28
2024-04-30T05:31:19.083Z,61.05
2024-04-30T05:31:50.327Z,61.00
2024-04-30T05:32:22.456Z,61.51
2024-04-30T05:32:53.665Z,61.59
2024-04-30T05:33:27.536Z,61.13
2024-04-30T05:34:00.894Z,61.06
2024-04-30T05:34:32.412Z,61.03
2024-04-30T05:35:05.031Z,60.85
2024-04-30T05:35:36.157Z,60.92
2024-04-30T05:36:07.500Z,61.42
2024-04-30T05:36:38.874Z,61.21
2024-04-30T05:37:10.271Z,61.70
2024-04-30T05:37:44.341Z,61.28
2024-04-30T05:38:15.856Z,60.61
2024-04-30T05:38:46.984Z,60.94
2024-04-30T05:39:18.308Z,61.02
2024-04-30T05:39:49.672Z,61.16
2024-04-30T05:40:21.090Z,61.20
2024-04-30T05:40:52.462Z,60.85
2024-04-30T05:41:23.861Z,61.15
2024-04-30T05:41:55.247Z,60.77
2024-04-30T05:42:26.659Z,60.13
2024-04-30T05:42:58.002Z,60.63
2024-04-30T05:43:29.481Z,59.88
2024-04-30T05:44:00.905Z,59.94
2024-04-30T05:44:32.285Z,59.88
2024-04-30T05:45:04.003Z,61.03
2024-04-30T05:45:35.538Z,60.90
2024-04-30T05:46:06.956Z,60.31
2024-04-30T05:46:38.470Z,60.66
2024-04-30T05:47:10.163Z,60.69
2024-04-30T05:47:42.025Z,60.33
2024-04-30T05:48:13.137Z,60.92
2024-04-30T05:48:44.484Z,60.60
2024-04-30T05:49:16.855Z,60.11
2024-04-30T05:49:48.265Z,60.28
2024-04-30T05:50:19.646Z,59.98
2024-04-30T05:50:50.735Z,60.06
2024-04-30T05:51:22.222Z,60.27
2024-04-30T05:51:53.567Z,60.25
2024-04-30T05:52:24.944Z,60.32
2024-04-30T05:52:56.361Z,60.65
2024-04-30T05:53:28.132Z,59.32
2024-04-30T05:53:59.507Z,59.13
2024-04-30T05:54:30.956Z,58.96
2024-04-30T05:55:02.153Z,59.28
2024-04-30T05:55:33.786Z,59.42
2024-04-30T05:56:06.248Z,59.82
2024-04-30T05:56:37.695Z,59.29
2024-04-30T05:57:08.846Z,59.09
2024-04-30T05:57:40.213Z,59.55
2024-04-30T05:58:14.211Z,60.14
2024-04-30T05:58:45.872Z,60.26
2024-04-30T05:59:17.282Z,59.95
2024-04-30T05:59:48.638Z,59.73
2024-04-30T06:00:20.043Z,59.54
2024-04-30T06:00:51.420Z,59.86
2024-04-30T06:01:22.825Z,59.29
2024-04-30T06:01:54.429Z,58.99
2024-04-30T06:02:25.913Z,59.02
2024-04-30T06:02:59.105Z,58.68
2024-04-30T06:03:33.157Z,59.09
2024-04-30T06:04:05.092Z,58.39
2024-04-30T06:04:36.315Z,57.94
2024-04-30T06:05:07.817Z,58.22
2024-04-30T06:05:39.284Z,58.23
2024-04-30T06:06:10.841Z,58.14
2024-04-30T06:06:42.221Z,58.21
2024-04-30T06:07:13.634Z,57.57
2024-04-30T06:07:45.059Z,58.01
2024-04-30T06:08:16.519Z,57.67
2024-04-30T06:08:47.909Z,57.88
2024-04-30T06:09:19.326Z,57.27
2024-04-30T06:09:50.655Z,57.41
2024-04-30T06:10:24.135Z,57.07
2024-04-30T06:10:55.665Z,56.91
2024-04-30T06:11:27.202Z,57.53
2024-04-30T06:11:58.567Z,57.56
2024-04-30T06:12:29.968Z,57.93
2024-04-30T06:13:01.340Z,57.51
2024-04-30T06:13:32.935Z,57.94
2024-04-30T06:14:04.359Z,57.41
2024-04-30T06:14:35.743Z,57.67
2024-04-30T06:15:07.229Z,56.90
2024-04-30T06:15:38.541Z,56.84
2024-04-30T06:16:09.935Z,56.89
2024-04-30T06:16:41.357Z,56.61
2024-04-30T06:17:13.596Z,56.73
2024-04-30T06:17:45.044Z,56.49
2024-04-30T06:18:16.522Z,56.89
2024-04-30T06:18:48.117Z,56.07
2024-04-30T06:19:19.346Z,56.20
2024-04-30T06:19:50.805Z,56.20
2024-04-30T06:20:22.191Z,56.21
2024-04-30T06:20:53.703Z,56.00
2024-04-30T06:21:31.540Z,55.93
2024-04-30T06:22:08.993Z,55.90
2024-04-30T06:22:40.435Z,56.02
2024-04-30T06:23:11.857Z,55.08
2024-04-30T06:23:43.255Z,55.26
2024-04-30T06:24:14.361Z,55.58
2024-04-30T06:24:45.733Z,55.75
2024-04-30T06:25:16.880Z,55.42
2024-04-30T06:25:48.317Z,55.16
2024-04-30T06:26:19.711Z,55.54
2024-04-30T06:26:51.143Z,55.83
2024-04-30T06:27:22.673Z,56.17
2024-04-30T06:27:54.062Z,56.57
2024-04-30T06:28:25.814Z,56.51
2024-04-30T06:28:57.190Z,56.23
2024-04-30T06:29:28.622Z,56.58
2024-04-30T06:29:59.991Z,56.49
2024-04-30T06:30:32.043Z,56.56
2024-04-30T06:31:03.558Z,57.06
2024-04-30T06:31:35.110Z,57.35
2024-04-30T06:32:06.574Z,57.74
2024-04-30T06:32:37.968Z,57.30
2024-04-30T06:33:09.448Z,56.88
2024-04-30T06:33:40.596Z,56.50
2024-04-30T06:34:13.352Z,56.46
2024-04-30T06:34:45.969Z,56.12
2024-04-30T06:35:17.098Z,55.89
2024-04-30T06:35:48.421Z,56.14
2024-04-30T06:36:19.773Z,55.64
2024-04-30T06:36:51.141Z,55.53
2024-04-30T06:37:22.545Z,55.35
2024-04-30T06:37:55.104Z,55.60
2024-04-30T06:38:28.279Z,55.36
2024-04-30T06:38:59.652Z,54.87
2024-04-30T06:39:31.188Z,55.15
2024-04-30T06:40:02.761Z,54.81
2024-04-30T06:40:34.460Z,54.71
2024-04-30T06:41:05.847Z,54.80
2024-04-30T06:41:37.275Z,55.27
2024-04-30T06:42:08.884Z,55.87
2024-04-30T06:42:40.360Z,55.63
2024-04-30T06:43:11.499Z,55.39
2024-04-30T06:43:43.040Z,56.00
2024-04-30T06:44:14.517Z,56.07
2024-04-30T06:44:46.080Z,55.34
2024-04-30T06:45:19.334Z,55.14
2024-04-30T06:45:50.669Z,55.75
2024-04-30T06:46:22.046Z,56.07
2024-04-30T06:46:53.464Z,56.12
2024-04-30T06:47:24.990Z,55.37
2024-04-30T06:47:57.540Z,55.17
2024-04-30T06:48:29.078Z,55.16
2024-04-30T06:49:02.660Z,55.08
2024-04-30T06:49:34.142Z,55.04
2024-04-30T06:50:06.082Z,54.50
2024-04-30T06:50:37.223Z,54.57
2024-04-30T06:51:09.011Z,54.60
2024-04-30T06:51:40.532Z,54.02
2024-04-30T06:52:11.875Z,54.04
2024-04-30T06:52:43.281Z,53.98
2024-04-30T06:53:14.663Z,53.43
2024-04-30T06:53:45.769Z,53.09
2024-04-30T06:54:16.887Z,53.32
2024-04-30T06:54:48.224Z,52.71
2024-04-30T06:55:20.145Z,53.29
2024-04-30T06:55:53.756Z,53.46
2024-04-30T06:56:26.669Z,53.14
2024-04-30T06:56:58.091Z,52.62
2024-04-30T06:57:29.417Z,52.18
2024-04-30T06:58:00.842Z,52.73
2024-04-30T06:58:32.351Z,52.58
2024-04-30T06:59:03.738Z,52.61
2024-04-30T06:59:35.108Z,51.54
2024-04-30T07:00:07.021Z,52.24
2024-04-30T07:00:39.598Z,52.01
2024-04-30T07:01:10.970Z,52.15
2024-04-30T07:01:42.207Z,52.29
2024-04-30T07:02:13.630Z,52.57
2024-04-30T07:02:45.015Z,52.22
2024-04-30T07:03:16.348Z,52.08
2024-04-30T07:03:47.455Z,52.27
2024-04-30T07:04:18.871Z,52.80
2024-04-30T07:04:50.404Z,52.22
2024-04-30T07:05:21.849Z,51.93
2024-04-30T07:05:53.729Z,52.32
2024-04-30T07:06:25.106Z,51.28
2024-04-30T07:06:56.443Z,51.57
2024-04-30T07:07:29.033Z,51.31
2024-04-30T07:08:00.506Z,51.88
2024-04-30T07:08:31.655Z,51.38
2024-04-30T07:09:03.200Z,51.84
2024-04-30T07:09:34.548Z,52.46
2024-04-30T07:10:06.441Z,52.35
2024-04-30T07:10:37.653Z,53.32
2024-04-30T07:11:08.814Z,53.27
2024-04-30T07:11:40.316Z,53.59
2024-04-30T07:12:11.919Z,53.45
2024-04-30T07:12:43.294Z,54.02
2024-04-30T07:13:14.934Z,53.72
2024-04-30T07:13:46.340Z,53.65
2024-04-30T07:14:17.756Z,54.20
2024-04-30T07:14:49.212Z,53.29
2024-04-30T07:15:20.653Z,53.50
2024-04-30T07:15:52.043Z,53.51
2024-04-30T07:16:23.484Z,53.43
2024-04-30T07:17:02.534Z,53.15
2024-04-30T07:17:40.161Z,53.14
2024-04-30T07:18:11.665Z,52.71
2024-04-30T07:18:43.204Z,52.22
2024-04-30T07:19:14.572Z,51.37
2024-04-30T07:19:47.092Z,51.36
2024-04-30T07:20:19.589Z,51.75
2024-04-30T07:20:50.941Z,52.42
2024-04-30T07:21:22.318Z,51.80
2024-04-30T07:21:53.467Z,51.91
2024-04-30T07:22:24.866Z,51.42
2024-04-30T07:22:56.466Z,51.55
2024-04-30T07:23:27.661Z,50.92
2024-04-30T07:23:58.785Z,52.03
2024-04-30T07:24:30.159Z,51.94
2024-04-30T07:25:01.523Z,51.45
2024-04-30T07:25:32.955Z,51.13
2024-04-30T07:26:04.751Z,50.94
2024-04-30T07:26:36.144Z,50.85
2024-04-30T07:27:07.480Z,50.95
2024-04-30T07:27:38.863Z,51.46
2024-04-30T07:28:10.271Z,51.27
2024-04-30T07:28:41.735Z,51.16
2024-04-30T07:29:13.119Z,51.19
2024-04-30T07:29:44.442Z,51.17
2024-04-30T07:30:15.762Z,51.01
2024-04-30T07:30:47.128Z,50.58
2024-04-30T07:31:18.567Z,50.58
2024-04-30T07:31:51.091Z,50.10
2024-04-30T07:32:22.546Z,49.47
2024-04-30T07:32:54.257Z,48.95
2024-04-30T07:33:25.814Z,48.80
2024-04-30T07:33:57.255Z,48.77
2024-04-30T07:34:28.784Z,48.34
2024-04-30T07:35:00.254Z,46.92
2024-04-30T07:35:31.354Z,46.98
2024-04-30T07:36:02.950Z,47.34
2024-04-30T07:36:34.330Z,47.33
2024-04-30T07:37:05.441Z,47.28
2024-04-30T07:37:36.909Z,47.08
2024-04-30T07:38:08.316Z,46.70
2024-04-30T07:38:39.814Z,46.98
2024-04-30T07:39:11.204Z,46.70
2024-04-30T07:39:42.593Z,46.43
2024-04-30T07:40:14.491Z,45.75
2024-04-30T07:40:45.673Z,46.05
2024-04-30T07:41:17.057Z,43.12
2024-04-30T07:41:48.431Z,45.39
2024-04-30T07:42:19.796Z,42.08
2024-04-30T07:42:51.225Z,43.16
2024-04-30T07:43:22.674Z,42.78
2024-04-30T07:43:54.934Z,42.19
2024-04-30T07:44:26.308Z,41.42
2024-04-30T07:44:57.666Z,39.99
2024-04-30T07:45:29.041Z,40.66
2024-04-30T07:46:00.441Z,40.69
2024-04-30T07:46:31.888Z,40.03
2024-04-30T07:47:03.554Z,40.21
2024-04-30T07:47:35.024Z,40.29
2024-04-30T07:48:06.669Z,41.48
2024-04-30T07:48:39.443Z,42.78
2024-04-30T07:49:10.848Z,41.37
2024-04-30T07:49:42.234Z,40.76
2024-04-30T07:50:13.719Z,39.85
2024-04-30T07:50:45.090Z,40.65
2024-04-30T07:51:17.046Z,40.69
2024-04-30T07:51:48.464Z,40.61
2024-04-30T07:52:19.896Z,39.72
2024-04-30T07:52:51.252Z,40.33
2024-04-30T07:53:22.627Z,40.41
2024-04-30T07:53:54.033Z,40.11
2024-04-30T07:54:25.411Z,40.87
2024-04-30T07:54:59.668Z,41.02
2024-04-30T07:55:32.129Z,41.71
2024-04-30T07:56:03.783Z,41.64
2024-04-30T07:56:35.193Z,41.37
2024-04-30T07:57:06.535Z,40.74
2024-04-30T07:57:37.921Z,42.06
2024-04-30T07:58:09.292Z,41.29
2024-04-30T07:58:40.526Z,41.39
2024-04-30T07:59:11.980Z,40.91
2024-04-30T07:59:43.364Z,40.61
2024-04-30T08:00:14.767Z,40.14
2024-04-30T08:00:46.329Z,39.30
2024-04-30T08:01:17.978Z,40.59
2024-04-30T08:01:49.498Z,39.60
2024-04-30T08:02:20.966Z,39.61
2024-04-30T08:02:52.603Z,40.32
2024-04-30T08:03:24.066Z,39.50
2024-04-30T08:03:55.536Z,38.93
2024-04-30T08:04:26.896Z,39.21
2024-04-30T08:04:58.260Z,39.21
2024-04-30T08:05:31.225Z,39.97
2024-04-30T08:06:10.879Z,39.01
2024-04-30T08:06:51.106Z,39.68
2024-04-30T08:07:22.479Z,38.54
2024-04-30T08:07:53.821Z,38.96
2024-04-30T08:08:25.168Z,38.26
2024-04-30T08:08:56.540Z,38.89
2024-04-30T08:09:27.852Z,38.54
2024-04-30T08:09:59.228Z,38.61
2024-04-30T08:10:30.605Z,38.51
2024-04-30T08:11:01.938Z,38.67
2024-04-30T08:11:33.825Z,38.52
2024-04-30T08:12:05.329Z,38.47
2024-04-30T08:12:36.731Z,38.91
2024-04-30T08:13:08.108Z,38.60
2024-04-30T08:13:41.699Z,38.13
2024-04-30T08:14:13.146Z,38.53
2024-04-30T08:14:50.295Z,38.77
2024-04-30T08:15:27.579Z,38.86
2024-04-30T08:16:04.694Z,38.01
2024-04-30T08:16:36.315Z,38.24
2024-04-30T08:17:07.761Z,39.67
2024-04-30T08:17:39.378Z,38.04
2024-04-30T08:18:11.326Z,38.78
2024-04-30T08:18:42.756Z,39.42
2024-04-30T08:19:14.095Z,39.33
2024-04-30T08:19:45.644Z,38.60
2024-04-30T08:20:17.062Z,39.51
2024-04-30T08:20:48.404Z,39.71
2024-04-30T08:21:19.673Z,39.36
2024-04-30T08:21:50.981Z,39.67
2024-04-30T08:22:23.167Z,40.15
2024-04-30T08:22:55.149Z,40.00
2024-04-30T08:23:26.529Z,39.55
2024-04-30T08:23:57.635Z,38.98
2024-04-30T08:24:29.018Z,39.98
2024-04-30T08:25:00.398Z,39.62
2024-04-30T08:25:31.597Z,40.25
2024-04-30T08:26:03.056Z,39.51
2024-04-30T08:26:37.865Z,39.58
2024-04-30T08:27:09.014Z,40.28
2024-04-30T08:27:40.399Z,39.62
2024-04-30T08:28:11.775Z,39.90
2024-04-30T08:28:43.852Z,40.40
2024-04-30T08:29:16.043Z,39.31
2024-04-30T08:29:47.889Z,39.31
2024-04-30T08:30:19.751Z,39.12
2024-04-30T08:30:51.666Z,39.09
2024-04-30T08:31:23.574Z,38.50
2024-04-30T08:31:55.008Z,38.91
2024-04-30T08:32:26.477Z,38.28
2024-04-30T08:32:59.295Z,39.53
2024-04-30T08:33:30.847Z,38.86
2024-04-30T08:34:02.260Z,38.07
2024-04-30T08:34:33.427Z,38.83
2024-04-30T08:35:05.030Z,38.23
2024-04-30T08:35:36.715Z,37.05
2024-04-30T08:36:08.181Z,37.67
2024-04-30T08:36:39.573Z,38.13
2024-04-30T08:37:10.745Z,37.61
2024-04-30T08:37:51.321Z,37.65
2024-04-30T08:38:26.338Z,37.89
2024-04-30T08:38:57.507Z,37.38
2024-04-30T08:39:29.071Z,37.04
2024-04-30T08:40:00.575Z,37.18
2024-04-30T08:40:31.785Z,38.01
2024-04-30T08:41:06.691Z,38.65
2024-04-30T08:41:38.602Z,37.80
2024-04-30T08:42:10.872Z,37.45
2024-04-30T08:42:48.565Z,37.41
2024-04-30T08:43:21.593Z,37.92
2024-04-30T08:43:54.566Z,38.69
2024-04-30T08:44:27.424Z,38.18
2024-04-30T08:45:01.725Z,38.47
2024-04-30T08:45:33.657Z,37.61
2024-04-30T08:46:08.194Z,37.64
2024-04-30T08:46:42.846Z,37.95
2024-04-30T08:47:14.589Z,37.53
2024-04-30T08:47:49.256Z,38.05
2024-04-30T08:48:23.662Z,38.06
2024-04-30T08:48:56.728Z,38.75
2024-04-30T08:49:38.392Z,37.56
2024-04-30T08:50:21.733Z,37.87
2024-04-30T08:50:53.688Z,38.26
2024-04-30T08:51:24.906Z,37.87
2024-04-30T08:52:00.333Z,37.76
2024-04-30T08:52:33.647Z,38.75
2024-04-30T08:53:07.867Z,38.00
2024-04-30T08:53:39.372Z,38.56
2024-04-30T08:54:11.118Z,38.58
2024-04-30T08:54:42.915Z,38.20
2024-04-30T08:55:16.656Z,38.56
2024-04-30T08:55:48.288Z,39.25
2024-04-30T08:56:19.875Z,39.41
2024-04-30T08:56:51.321Z,39.14
2024-04-30T08:57:22.757Z,38.25
2024-04-30T08:57:54.234Z,36.14
2024-04-30T08:58:25.658Z,36.24
2024-04-30T08:58:57.151Z,37.24
2024-04-30T08:59:28.491Z,37.69
2024-04-30T09:00:00.381Z,37.20
2024-04-30T09:00:31.907Z,36.35
2024-04-30T09:01:04.447Z,36.17
2024-04-30T09:01:37.596Z,36.08
2024-04-30T09:02:09.196Z,36.37
2024-04-30T09:02:40.992Z,38.10
2024-04-30T09:03:13.077Z,37.09
2024-04-30T09:03:44.892Z,36.72
2024-04-30T09:04:17.226Z,36.50
2024-04-30T09:04:49.685Z,36.95
2024-04-30T09:05:21.917Z,38.06
2024-04-30T09:05:54.395Z,37.60
2024-04-30T09:06:25.932Z,37.71
2024-04-30T09:06:57.368Z,38.20
2024-04-30T09:07:29.047Z,36.94
2024-04-30T09:08:01.382Z,37.38
2024-04-30T09:08:32.878Z,37.26
2024-04-30T09:09:04.484Z,37.14
2024-04-30T09:09:35.880Z,37.47
2024-04-30T09:10:07.392Z,37.96
2024-04-30T09:10:40.643Z,36.38
2024-04-30T09:11:11.961Z,37.40
2024-04-30T09:11:43.285Z,36.53
2024-04-30T09:12:14.803Z,37.29
2024-04-30T09:12:46.198Z,37.14
2024-04-30T09:13:18.772Z,36.25
2024-04-30T09:13:51.450Z,35.57
2024-04-30T09:14:22.851Z,36.22
2024-04-30T09:14:55.851Z,36.95
2024-04-30T09:15:27.348Z,36.54
2024-04-30T09:16:00.210Z,36.27
2024-04-30T09:16:31.691Z,35.74
2024-04-30T09:17:03.363Z,36.45
2024-04-30T09:17:34.891Z,37.10
2024-04-30T09:18:09.109Z,36.46
2024-04-30T09:18:50.211Z,36.19
2024-04-30T09:19:29.060Z,35.98
2024-04-30T09:20:03.233Z,37.06
2024-04-30T09:20:44.743Z,37.87
2024-04-30T09:21:45.718Z,36.87
2024-04-30T09:22:18.734Z,37.49
2024-04-30T09:22:50.914Z,37.38
2024-04-30T09:23:26.563Z,37.42
2024-04-30T09:24:08.045Z,36.08
2024-04-30T09:24:46.450Z,35.81
2024-04-30T09:25:19.099Z,36.47
2024-04-30T09:25:50.494Z,36.13
2024-04-30T09:26:21.884Z,34.97
2024-04-30T09:26:53.267Z,35.50
2024-04-30T09:27:32.172Z,35.00
2024-04-30T09:28:15.976Z,34.61
2024-04-30T09:28:53.887Z,36.43
2024-04-30T09:29:35.767Z,35.40
2024-04-30T09:30:18.413Z,35.13
2024-04-30T09:30:56.871Z,35.23
2024-04-30T09:31:38.377Z,35.38
2024-04-30T09:32:14.337Z,34.94
2024-04-30T09:32:45.802Z,34.64
2024-04-30T09:33:17.252Z,34.81
2024-04-30T09:33:54.826Z,34.97
2024-04-30T09:34:26.232Z,35.12
2024-04-30T09:34:57.552Z,35.47
2024-04-30T09:35:29.811Z,34.54
2024-04-30T09:36:07.256Z,34.59
2024-04-30T09:36:40.490Z,34.74
2024-04-30T09:37:22.531Z,34.85
2024-04-30T09:38:00.360Z,34.97
2024-04-30T09:38:33.528Z,35.72
2024-04-30T09:39:09.570Z,36.39
2024-04-30T09:39:43.121Z,36.27
2024-04-30T09:40:14.661Z,37.22
2024-04-30T09:40:46.140Z,36.69
2024-04-30T09:41:18.994Z,37.05
2024-04-30T09:41:50.658Z,36.85
2024-04-30T09:42:25.646Z,38.09
2024-04-30T09:42:56.984Z,37.17
2024-04-30T09:43:31.265Z,37.71
2024-04-30T09:44:02.822Z,37.50
2024-04-30T09:44:35.056Z,37.32
2024-04-30T09:45:07.134Z,36.48
2024-04-30T09:45:38.550Z,36.11
2024-04-30T09:46:10.895Z,34.84
2024-04-30T09:46:43.121Z,35.61
2024-04-30T09:47:14.725Z,35.11
2024-04-30T09:47:46.298Z,35.29
2024-04-30T09:48:18.320Z,36.03
2024-04-30T09:48:51.035Z,36.38
2024-04-30T09:49:23.916Z,36.69
2024-04-30T09:49:55.484Z,36.74
2024-04-30T09:50:29.255Z,36.43
2024-04-30T09:51:04.579Z,35.49
2024-04-30T09:51:39.218Z,34.66
2024-04-30T09:52:12.239Z,35.24
2024-04-30T09:52:45.118Z,34.43
2024-04-30T09:53:18.142Z,35.26
2024-04-30T09:53:49.841Z,35.45
2024-04-30T09:54:24.707Z,35.02
2024-04-30T09:55:00.707Z,34.60
2024-04-30T09:55:35.996Z,36.06
2024-04-30T09:56:10.757Z,36.30
2024-04-30T09:56:45.305Z,37.16
2024-04-30T09:57:17.318Z,36.56
2024-04-30T09:57:48.887Z,36.14
2024-04-30T09:58:20.242Z,36.67
2024-04-30T09:58:51.778Z,36.78
2024-04-30T09:59:23.131Z,36.17
2024-04-30T09:59:54.549Z,35.56
2024-04-30T10:00:28.794Z,35.18
2024-04-30T10:01:03.953Z,34.59
2024-04-30T10:01:36.221Z,34.08
2024-04-30T10:02:11.290Z,34.19
2024-04-30T10:02:54.393Z,34.97
2024-04-30T10:03:27.982Z,36.02
2024-04-30T10:04:01.497Z,37.15
2024-04-30T10:04:34.724Z,36.64
2024-04-30T10:05:07.733Z,36.36
2024-04-30T10:05:50.942Z,35.10
2024-04-30T10:06:22.875Z,34.45
2024-04-30T10:06:56.738Z,34.34
2024-04-30T10:07:29.441Z,34.89
2024-04-30T10:08:01.621Z,35.09
2024-04-30T10:08:34.120Z,34.85
2024-04-30T10:09:06.016Z,35.22
2024-04-30T10:09:37.375Z,34.74
2024-04-30T10:10:08.825Z,35.13
2024-04-30T10:10:40.276Z,34.58
2024-04-30T10:11:11.963Z,34.86
2024-04-30T10:11:46.876Z,35.71
2024-04-30T10:12:27.109Z,34.47
2024-04-30T10:13:08.111Z,34.99
2024-04-30T10:13:53.132Z,35.98
2024-04-30T10:14:28.691Z,36.22
2024-04-30T10:15:13.732Z,35.13
2024-04-30T10:15:45.057Z,36.59
2024-04-30T10:16:17.226Z,35.35
2024-04-30T10:16:58.760Z,35.97
2024-04-30T10:17:41.987Z,36.32
2024-04-30T10:18:23.390Z,36.53
2024-04-30T10:19:02.026Z,35.78
2024-04-30T10:19:43.501Z,36.20
2024-04-30T10:20:33.958Z,36.18
2024-04-30T10:21:11.586Z,35.26
2024-04-30T10:21:42.969Z,35.11
2024-04-30T10:22:18.131Z,35.74
2024-04-30T10:22:49.819Z,35.62
2024-04-30T10:23:27.814Z,35.25
2024-04-30T10:23:59.284Z,34.88
2024-04-30T10:24:38.737Z,34.65
2024-04-30T10:25:23.155Z,35.30
2024-04-30T10:26:04.689Z,34.61
2024-04-30T10:26:44.655Z,33.36
2024-04-30T10:27:19.356Z,34.28
2024-04-30T10:27:51.434Z,34.38
2024-04-30T10:28:23.763Z,34.08
2024-04-30T10:29:04.430Z,34.60
2024-04-30T10:29:39.199Z,36.07
2024-04-30T10:30:10.612Z,36.23
2024-04-30T10:30:42.086Z,35.92
2024-04-30T10:31:19.626Z,36.12
2024-04-30T10:31:51.055Z,34.69
2024-04-30T10:32:22.453Z,35.34
2024-04-30T10:32:55.249Z,34.95
2024-04-30T10:33:26.555Z,34.87
2024-04-30T10:34:09.802Z,35.43
2024-04-30T10:34:42.327Z,35.23
2024-04-30T10:35:13.474Z,35.61
2024-04-30T10:35:44.557Z,35.20
2024-04-30T10:36:16.990Z,34.40
2024-04-30T10:36:48.431Z,34.08
2024-04-30T10:37:29.953Z,35.18
2024-04-30T10:38:04.336Z,36.00
2024-04-30T10:38:38.253Z,35.76
2024-04-30T10:39:09.435Z,34.98
2024-04-30T10:39:41.098Z,34.84
2024-04-30T10:40:15.199Z,34.82
2024-04-30T10:40:46.636Z,34.72
2024-04-30T10:41:18.091Z,35.32
2024-04-30T10:41:49.517Z,34.22
2024-04-30T10:42:20.681Z,33.67
2024-04-30T10:42:51.763Z,34.14
2024-04-30T10:43:23.307Z,33.92
2024-04-30T10:44:02.312Z,34.41
2024-04-30T10:44:43.644Z,34.30
2024-04-30T10:45:22.599Z,34.39
2024-04-30T10:45:54.009Z,34.13
2024-04-30T10:46:26.007Z,33.65
2024-04-30T10:46:57.602Z,33.11
2024-04-30T10:47:35.290Z,32.65
2024-04-30T10:48:10.337Z,33.07
2024-04-30T10:48:52.212Z,33.47
2024-04-30T10:49:23.665Z,32.73
2024-04-30T10:50:16.446Z,33.32
2024-04-30T10:50:59.225Z,33.51
2024-04-30T10:51:35.623Z,33.10
2024-04-30T10:52:07.042Z,33.41
2024-04-30T10:52:38.512Z,32.96
2024-04-30T10:53:09.989Z,33.55
2024-04-30T10:53:42.018Z,32.84
2024-04-30T10:54:14.142Z,33.49
2024-04-30T10:54:45.568Z,32.52
2024-04-30T10:55:19.875Z,33.41
2024-04-30T10:55:51.476Z,33.01
2024-04-30T10:56:23.218Z,33.75
2024-04-30T10:56:54.660Z,33.18
2024-04-30T10:57:30.581Z,32.04
2024-04-30T10:58:13.841Z,32.47
2024-04-30T10:58:55.834Z,32.63
2024-04-30T10:59:27.873Z,32.16
2024-04-30T11:00:06.710Z,32.85
2024-04-30T11:00:44.438Z,32.77
2024-04-30T11:01:23.582Z,32.16
2024-04-30T11:02:01.063Z,32.32
2024-04-30T11:02:32.468Z,30.79
2024-04-30T11:03:08.338Z,30.67
2024-04-30T11:03:39.740Z,30.94
2024-04-30T11:04:12.194Z,31.94
2024-04-30T11:04:43.812Z,32.47
2024-04-30T11:05:16.992Z,31.74
2024-04-30T11:05:58.921Z,30.78
2024-04-30T11:06:42.922Z,30.70
2024-04-30T11:07:18.050Z,31.12
2024-04-30T11:07:58.982Z,31.95
2024-04-30T11:08:31.530Z,31.76
2024-04-30T11:09:05.431Z,31.68
2024-04-30T11:09:39.608Z,32.21
2024-04-30T11:10:11.048Z,33.48
2024-04-30T11:10:45.614Z,32.35
2024-04-30T11:11:39.732Z,32.67
2024-04-30T11:12:10.892Z,32.05
2024-04-30T11:12:42.638Z,33.00
2024-04-30T11:13:22.545Z,33.14
2024-04-30T11:14:00.717Z,32.91
2024-04-30T11:14:44.568Z,32.23
2024-04-30T11:15:16.082Z,32.34
2024-04-30T11:15:51.336Z,32.43
2024-04-30T11:16:27.755Z,31.28
2024-04-30T11:16:59.227Z,31.62
2024-04-30T11:17:30.673Z,32.30
2024-04-30T11:18:02.234Z,31.86
2024-04-30T11:18:36.095Z,30.90
2024-04-30T11:19:08.821Z,30.66
2024-04-30T11:19:41.618Z,30.64
2024-04-30T11:20:12.775Z,31.57
2024-04-30T11:20:44.121Z,31.29
2024-04-30T11:21:21.000Z,31.49
2024-04-30T11:21:52.932Z,30.99
2024-04-30T11:22:24.316Z,31.00
2024-04-30T11:22:55.728Z,31.30
2024-04-30T11:23:27.083Z,31.71
2024-04-30T11:23:58.438Z,31.31
2024-04-30T11:24:29.803Z,30.04
2024-04-30T11:25:01.183Z,28.86
2024-04-30T11:25:32.394Z,29.38
2024-04-30T11:26:03.719Z,29.33
2024-04-30T11:26:35.320Z,29.68
2024-04-30T11:27:06.712Z,29.51
2024-04-30T11:27:38.102Z,30.11
2024-04-30T11:28:09.218Z,30.89
2024-04-30T11:28:40.684Z,30.88
2024-04-30T11:29:23.903Z,30.59
2024-04-30T11:30:04.195Z,30.36
2024-04-30T11:30:35.587Z,30.31
2024-04-30T11:31:07.033Z,30.01
2024-04-30T11:31:38.498Z,30.52
2024-04-30T11:32:10.168Z,29.07
2024-04-30T11:32:41.745Z,29.39
2024-04-30T11:33:13.348Z,29.24
2024-04-30T11:33:44.725Z,29.97
2024-04-30T11:34:16.229Z,29.56
2024-04-30T11:34:51.220Z,29.91
2024-04-30T11:35:23.409Z,29.38
2024-04-30T11:35:54.760Z,30.03
2024-04-30T11:36:25.886Z,29.45
2024-04-30T11:36:57.230Z,28.91
2024-04-30T11:37:28.457Z,29.72
2024-04-30T11:38:00.047Z,29.28
2024-04-30T11:38:31.620Z,29.53
2024-04-30T11:39:03.350Z,30.15
2024-04-30T11:39:34.791Z,29.31
2024-04-30T11:40:06.940Z,28.68
2024-04-30T11:40:38.679Z,28.76
2024-04-30T11:41:10.053Z,28.59
2024-04-30T11:41:48.493Z,28.84
2024-04-30T11:42:27.531Z,28.23
2024-04-30T11:43:05.461Z,27.64
2024-04-30T11:43:36.660Z,28.26
2024-04-30T11:44:08.066Z,28.17
2024-04-30T11:44:39.525Z,27.96
2024-04-30T11:45:13.755Z,27.27
2024-04-30T11:45:45.091Z,26.81
2024-04-30T11:46:16.478Z,27.62
2024-04-30T11:46:47.893Z,26.94
2024-04-30T11:47:19.333Z,26.82
2024-04-30T11:47:51.011Z,26.00
2024-04-30T11:48:24.058Z,27.63
2024-04-30T11:48:56.469Z,27.85
2024-04-30T11:49:27.875Z,26.69
2024-04-30T11:49:59.276Z,27.00
2024-04-30T11:50:30.648Z,27.00
2024-04-30T11:51:02.799Z,25.69
2024-04-30T11:51:33.993Z,26.09
2024-04-30T11:52:05.514Z,26.94
2024-04-30T11:52:39.209Z,26.62
2024-04-30T11:53:10.766Z,24.97
2024-04-30T11:53:42.153Z,25.32
2024-04-30T11:54:13.526Z,26.05
2024-04-30T11:54:45.094Z,25.35
2024-04-30T11:55:16.226Z,25.64
2024-04-30T11:55:48.126Z,25.80
2024-04-30T11:56:19.568Z,25.96
2024-04-30T11:56:51.084Z,26.34
2024-04-30T11:57:22.504Z,26.14
2024-04-30T11:57:53.859Z,26.21
2024-04-30T11:58:25.313Z,26.46
2024-04-30T11:58:56.720Z,26.57
2024-04-30T11:59:28.219Z,26.05
2024-04-30T11:59:59.337Z,26.53
2024-04-30T12:00:30.967Z,26.59
2024-04-30T12:01:02.243Z,27.04
2024-04-30T12:01:33.804Z,26.71
2024-04-30T12:02:05.474Z,26.31
2024-04-30T12:02:36.925Z,25.55
2024-04-30T12:03:08.533Z,25.83
2024-04-30T12:03:40.121Z,24.96
2024-04-30T12:04:11.767Z,25.39
2024-04-30T12:04:43.215Z,25.21
2024-04-30T12:05:14.756Z,25.17
2024-04-30T12:05:46.201Z,24.97
2024-04-30T12:06:17.656Z,24.89
2024-04-30T12:06:49.160Z,24.93
2024-04-30T12:07:20.680Z,26.23
2024-04-30T12:07:52.116Z,26.03
2024-04-30T12:08:23.619Z,25.56
2024-04-30T12:08:55.100Z,25.26
2024-04-30T12:09:26.804Z,25.42
2024-04-30T12:09:59.618Z,24.85
2024-04-30T12:10:31.019Z,25.75
2024-04-30T12:11:02.510Z,25.06
2024-04-30T12:11:39.908Z,26.50
2024-04-30T12:12:11.306Z,26.61
2024-04-30T12:12:45.464Z,26.35
2024-04-30T12:13:16.872Z,26.81
2024-04-30T12:13:48.610Z,25.70
2024-04-30T12:14:20.020Z,26.57
2024-04-30T12:14:51.463Z,26.32
2024-04-30T12:15:22.578Z,26.74
2024-04-30T12:15:55.308Z,25.52
2024-04-30T12:16:26.769Z,25.96
2024-04-30T12:16:58.284Z,25.06
2024-04-30T12:17:29.889Z,25.60
2024-04-30T12:18:01.449Z,23.73
2024-04-30T12:18:32.964Z,24.34
2024-04-30T12:19:08.408Z,24.53
2024-04-30T12:19:39.859Z,24.78
2024-04-30T12:20:11.313Z,24.22
2024-04-30T12:20:42.724Z,24.94
2024-04-30T12:21:14.158Z,25.64
2024-04-30T12:21:45.627Z,25.43
2024-04-30T12:22:17.093Z,25.82
2024-04-30T12:22:48.345Z,25.83
2024-04-30T12:23:20.671Z,25.99
2024-04-30T12:23:52.067Z,25.13
2024-04-30T12:24:23.425Z,25.45
2024-04-30T12:24:54.759Z,25.98
2024-04-30T12:25:26.218Z,25.94
2024-04-30T12:25:57.575Z,25.85
2024-04-30T12:26:36.288Z,25.92
2024-04-30T12:27:07.763Z,25.18
2024-04-30T12:27:39.699Z,27.03
2024-04-30T12:28:11.111Z,26.48
2024-04-30T12:28:42.764Z,25.55